createdAt,value
2019-01-17T00:03:36.223Z,6.29
2019-01-17T00:08:55.860Z,6.35
2019-01-17T00:14:04.022Z,6.28
2019-01-17T00:19:25.204Z,6.26
2019-01-17T00:24:33.047Z,6.18
2019-01-17T00:29:40.855Z,6.08
2019-01-17T00:34:58.092Z,6.02
2019-01-17T00:40:11.865Z,5.96
2019-01-17T00:45:17.059Z,5.99
2019-01-17T00:50:36.737Z,6.03
2019-01-17T00:55:58.042Z,5.99
2019-01-17T01:01:20.810Z,6.02
2019-01-17T01:06:28.349Z,5.93
2019-01-17T01:11:35.852Z,5.91
2019-01-17T01:16:52.496Z,5.91
2019-01-17T01:22:00.253Z,5.84
2019-01-17T01:27:14.446Z,5.85
2019-01-17T01:32:31.435Z,5.87
2019-01-17T01:37:51.434Z,5.87
2019-01-17T01:43:02.265Z,5.85
2019-01-17T01:48:18.861Z,6.07
2019-01-17T01:53:22.285Z,5.97
2019-01-17T01:58:25.828Z,5.93
2019-01-17T02:03:29.268Z,5.83
2019-01-17T02:08:32.693Z,5.75
2019-01-17T02:13:36.399Z,5.83
2019-01-17T02:18:39.880Z,5.81
2019-01-17T02:23:43.342Z,5.78
2019-01-17T02:28:46.768Z,5.87
2019-01-17T02:33:50.211Z,5.84
2019-01-17T02:38:53.713Z,5.88
2019-01-17T02:43:57.210Z,5.89
2019-01-17T02:49:07.000Z,5.99
2019-01-17T02:54:10.530Z,6.02
2019-01-17T02:59:24.802Z,6.01
2019-01-17T03:04:34.790Z,5.99
2019-01-17T03:09:35.841Z,5.96
2019-01-17T03:14:41.922Z,6.00
2019-01-17T03:19:47.406Z,6.02
2019-01-17T03:24:56.028Z,6.01
2019-01-17T03:30:04.222Z,5.95
2019-01-17T03:35:07.902Z,5.93
2019-01-17T03:40:14.200Z,5.92
2019-01-17T03:45:20.357Z,5.92
2019-01-17T03:50:23.812Z,5.89
2019-01-17T03:55:27.564Z,5.82
2019-01-17T04:00:31.492Z,5.88
2019-01-17T04:05:34.998Z,5.79
2019-01-17T04:10:38.439Z,5.72
2019-01-17T04:15:41.875Z,5.70
2019-01-17T04:20:45.336Z,5.63
2019-01-17T04:25:50.296Z,5.67
2019-01-17T04:30:53.819Z,5.71
2019-01-17T04:35:57.223Z,5.64
2019-01-17T04:41:00.776Z,5.62
2019-01-17T04:46:04.323Z,5.60
2019-01-17T04:51:07.810Z,5.67
2019-01-17T04:56:11.311Z,5.64
2019-01-17T05:01:16.267Z,5.59
2019-01-17T05:06:19.775Z,5.64
2019-01-17T05:11:23.213Z,5.67
2019-01-17T05:16:26.647Z,5.59
2019-01-17T05:21:30.170Z,5.66
2019-01-17T05:26:33.682Z,5.66
2019-01-17T05:31:37.286Z,5.65
2019-01-17T05:36:40.726Z,5.70
2019-01-17T05:41:44.238Z,5.73
2019-01-17T05:46:47.770Z,5.72
2019-01-17T05:51:51.205Z,5.75
2019-01-17T05:56:54.626Z,5.82
2019-01-17T06:01:58.053Z,5.83
2019-01-17T06:07:01.518Z,5.86
2019-01-17T06:12:05.087Z,5.78
2019-01-17T06:17:08.676Z,5.86
2019-01-17T06:22:12.103Z,5.90
2019-01-17T06:27:15.603Z,5.92
2019-01-17T06:32:19.029Z,5.90
2019-01-17T06:37:22.487Z,5.90
2019-01-17T06:42:25.921Z,5.96
2019-01-17T06:47:29.377Z,6.00
2019-01-17T06:52:32.896Z,5.99
2019-01-17T06:57:36.425Z,5.92
2019-01-17T07:02:39.994Z,5.95
2019-01-17T07:07:43.548Z,5.99
2019-01-17T07:12:47.009Z,5.90
2019-01-17T07:17:50.538Z,5.86
2019-01-17T07:22:54.004Z,5.74
2019-01-17T07:27:59.555Z,5.67
2019-01-17T07:33:03.068Z,5.65
2019-01-17T07:38:06.737Z,5.56
2019-01-17T07:43:10.241Z,5.53
2019-01-17T07:48:13.662Z,5.50
2019-01-17T07:53:17.072Z,5.47
2019-01-17T07:58:20.495Z,5.43
2019-01-17T08:03:23.935Z,5.47
2019-01-17T08:08:27.382Z,5.44
2019-01-17T08:13:30.879Z,5.37
2019-01-17T08:18:34.338Z,5.42
2019-01-17T08:23:37.758Z,5.39
2019-01-17T08:28:41.249Z,5.43
2019-01-17T08:33:44.675Z,5.47
2019-01-17T08:38:48.804Z,5.51
2019-01-17T08:43:52.442Z,5.53
2019-01-17T08:48:56.058Z,5.59
2019-01-17T08:53:59.516Z,5.65
2019-01-17T08:59:02.962Z,5.76
2019-01-17T09:04:06.477Z,5.80
2019-01-17T09:09:09.913Z,5.88
2019-01-17T09:14:13.351Z,5.98
2019-01-17T09:19:16.779Z,6.04
2019-01-17T09:24:20.221Z,6.04
2019-01-17T09:29:23.759Z,5.96
2019-01-17T09:34:27.203Z,6.06
2019-01-17T09:39:30.637Z,6.17
2019-01-17T09:44:34.081Z,6.17
2019-01-17T09:49:37.521Z,6.53
2019-01-17T09:54:40.963Z,6.57
2019-01-17T09:59:44.405Z,6.53
2019-01-17T10:04:47.844Z,6.41
2019-01-17T10:09:51.263Z,6.47
2019-01-17T10:14:54.709Z,6.51
2019-01-17T10:20:06.805Z,6.69
2019-01-17T10:25:29.378Z,7.06
2019-01-17T10:30:35.863Z,7.28
2019-01-17T10:36:02.915Z,7.51
2019-01-17T10:41:12.271Z,7.62
2019-01-17T10:46:30.669Z,7.68
2019-01-17T10:51:45.922Z,7.48
2019-01-17T10:57:19.401Z,7.55
2019-01-17T11:02:40.641Z,7.59
2019-01-17T11:07:49.608Z,7.72
2019-01-17T11:13:04.991Z,7.67
2019-01-17T11:18:30.883Z,7.68
2019-01-17T11:23:37.376Z,7.64
2019-01-17T11:28:50.066Z,7.56
2019-01-17T11:34:05.594Z,7.53
2019-01-17T11:39:36.228Z,7.51
2019-01-17T11:44:42.986Z,7.48
2019-01-17T11:50:08.979Z,7.36
2019-01-17T11:55:15.759Z,7.22
2019-01-17T12:00:39.918Z,7.00
2019-01-17T12:05:43.331Z,6.77
2019-01-17T12:11:06.211Z,6.42
2019-01-17T12:16:11.450Z,6.02
2019-01-17T12:21:25.412Z,5.65
2019-01-17T12:26:36.885Z,5.37
2019-01-17T12:31:59.807Z,5.10
2019-01-17T12:37:24.497Z,5.02
2019-01-17T12:42:33.132Z,4.84
2019-01-17T12:47:37.512Z,4.84
2019-01-17T12:52:40.941Z,4.80
2019-01-17T12:57:44.361Z,4.78
2019-01-17T13:02:47.871Z,4.65
2019-01-17T13:07:51.299Z,4.49
2019-01-17T13:12:54.741Z,4.55
2019-01-17T13:17:58.171Z,4.54
2019-01-17T13:23:01.590Z,4.44
2019-01-17T13:28:05.148Z,4.27
2019-01-17T13:33:09.390Z,4.31
2019-01-17T13:38:12.805Z,4.32
2019-01-17T13:43:16.230Z,4.42
2019-01-17T13:48:19.667Z,4.41
2019-01-17T13:53:23.093Z,4.38
2019-01-17T13:58:26.545Z,4.27
2019-01-17T14:03:29.970Z,4.45
2019-01-17T14:08:33.406Z,4.52
2019-01-17T14:13:36.848Z,4.59
2019-01-17T14:18:40.277Z,4.63
2019-01-17T14:23:43.877Z,4.59
2019-01-17T14:28:47.294Z,4.62
2019-01-17T14:33:50.706Z,4.58
2019-01-17T14:38:54.134Z,4.61
2019-01-17T14:43:57.532Z,4.69
2019-01-17T14:49:00.945Z,4.71
2019-01-17T14:54:04.516Z,4.66
2019-01-17T14:59:07.943Z,4.55
2019-01-17T15:04:11.363Z,4.57
2019-01-17T15:09:14.808Z,4.60
2019-01-17T15:14:18.233Z,4.64
2019-01-17T15:19:21.656Z,4.80
2019-01-17T15:24:25.103Z,4.68
2019-01-17T15:29:28.514Z,4.73
2019-01-17T15:34:31.934Z,4.73
2019-01-17T15:39:35.362Z,4.63
2019-01-17T15:44:38.773Z,4.63
2019-01-17T15:49:42.215Z,4.44
2019-01-17T15:54:45.657Z,4.56
2019-01-17T15:59:49.087Z,4.40
2019-01-17T16:04:52.538Z,4.23
2019-01-17T16:09:55.968Z,4.02
2019-01-17T16:14:59.507Z,3.95
2019-01-17T16:20:03.383Z,3.99
2019-01-17T16:25:09.328Z,3.78
2019-01-17T16:30:27.438Z,3.88
2019-01-17T16:35:30.859Z,3.94
2019-01-17T16:40:34.274Z,3.96
2019-01-17T16:45:37.699Z,3.83
2019-01-17T16:50:41.127Z,3.77
2019-01-17T16:55:44.562Z,3.72
2019-01-17T17:00:48.287Z,3.72
2019-01-17T17:05:51.705Z,3.71
2019-01-17T17:10:55.224Z,3.65
2019-01-17T17:15:58.652Z,3.62
2019-01-17T17:21:02.081Z,3.60
2019-01-17T17:26:05.579Z,3.59
2019-01-17T17:31:08.991Z,3.44
2019-01-17T17:36:12.414Z,3.36
2019-01-17T17:41:15.837Z,3.47
2019-01-17T17:46:19.285Z,3.34
2019-01-17T17:51:22.727Z,3.38
2019-01-17T17:56:26.332Z,3.36
2019-01-17T18:01:30.031Z,3.38
2019-01-17T18:06:33.532Z,3.38
2019-01-17T18:11:37.045Z,3.47
2019-01-17T18:16:40.474Z,3.44
2019-01-17T18:21:43.904Z,3.38
2019-01-17T18:26:48.180Z,3.35
2019-01-17T18:31:51.681Z,3.41
2019-01-17T18:36:55.094Z,3.23
2019-01-17T18:41:58.687Z,2.78
2019-01-17T18:47:02.110Z,2.76
2019-01-17T18:52:05.526Z,2.66
2019-01-17T18:57:08.940Z,2.76
2019-01-17T19:02:12.357Z,2.83
2019-01-17T19:07:16.120Z,3.01
2019-01-17T19:12:19.622Z,2.97
2019-01-17T19:17:23.048Z,2.97
2019-01-17T19:22:26.469Z,2.95
2019-01-17T19:27:29.904Z,3.03
2019-01-17T19:32:34.266Z,2.92
2019-01-17T19:37:37.838Z,2.99
2019-01-17T19:42:41.255Z,2.99
2019-01-17T19:47:44.738Z,3.02
2019-01-17T19:52:48.531Z,3.02
2019-01-17T19:57:51.931Z,2.89
2019-01-17T20:02:55.387Z,2.90
2019-01-17T20:07:58.971Z,2.96
2019-01-17T20:13:02.481Z,2.97
2019-01-17T20:18:06.114Z,2.96
2019-01-17T20:23:09.538Z,2.94
2019-01-17T20:28:12.972Z,2.98
2019-01-17T20:33:16.397Z,2.86
2019-01-17T20:38:19.815Z,2.93
2019-01-17T20:43:23.310Z,2.89
2019-01-17T20:48:26.732Z,2.94
2019-01-17T20:53:30.157Z,2.93
2019-01-17T20:58:33.632Z,2.84
2019-01-17T21:03:37.136Z,2.88
2019-01-17T21:08:40.576Z,2.82
2019-01-17T21:13:44.017Z,2.83
2019-01-17T21:18:47.439Z,2.83
2019-01-17T21:23:50.858Z,2.78
2019-01-17T21:28:54.286Z,2.79
2019-01-17T21:33:57.812Z,2.79
2019-01-17T21:39:01.359Z,2.82
2019-01-17T21:44:04.996Z,2.84
2019-01-17T21:49:08.427Z,2.81
2019-01-17T21:54:11.866Z,2.56
2019-01-17T21:59:15.294Z,2.69
2019-01-17T22:04:18.704Z,2.80
2019-01-17T22:09:22.155Z,2.75
2019-01-17T22:14:25.581Z,2.74
2019-01-17T22:19:29.105Z,2.64
2019-01-17T22:24:32.518Z,2.66
2019-01-17T22:29:35.954Z,2.61
2019-01-17T22:34:39.467Z,2.64
2019-01-17T22:39:42.964Z,2.64
2019-01-17T22:44:46.470Z,2.61
2019-01-17T22:49:49.972Z,2.61
2019-01-17T22:54:53.389Z,2.69
2019-01-17T22:59:56.820Z,2.63
2019-01-17T23:05:00.270Z,2.69
2019-01-17T23:10:05.919Z,2.69
2019-01-17T23:15:09.624Z,2.67
2019-01-17T23:20:13.124Z,2.66
2019-01-17T23:25:16.618Z,2.74
2019-01-17T23:30:20.190Z,2.48
2019-01-17T23:35:23.608Z,2.62
2019-01-17T23:40:27.033Z,2.75
2019-01-17T23:45:30.446Z,2.77
2019-01-17T23:50:33.873Z,2.68
2019-01-17T23:55:37.313Z,2.80
